This is the latest recevied weather packets stored in our database for station/object 9W2CEW-1. If no packets are shown the sender has not sent any weather packets the latest 10 day(s).
| Time | Temp. | Humidity | Pressure | Rain* | Wind** | Luminosity | Snow |
|---|---|---|---|---|---|---|---|
| 1777295485 | 27.22° C | 85% | 1003.7 hPa | - | - | - | - |
| 1777295363 | 27.22° C | 85% | 1003.7 hPa | - | - | - | - |
| 1777293751 | 26.67° C | 84% | 1003.3 hPa | - | - | - | - |
| 1777293563 | 26.67° C | 84% | 1003.3 hPa | - | - | - | - |
| 1777292663 | 26.67° C | 85% | 1002.8 hPa | - | - | - | - |
| 1777291763 | 26.67° C | 85% | 1002.9 hPa | - | - | - | - |
| 1777290930 | 26.67° C | 87% | 1003.2 hPa | - | - | - | - |
| 1777289963 | 26.11° C | 85% | 1002.6 hPa | - | - | - | - |
| 1777289062 | 26.67° C | 82% | 1002.5 hPa | - | - | - | - |
| 1777288162 | 27.22° C | 78% | 1001.6 hPa | - | - | - | - |
| 1777287363 | 27.78° C | 83% | 1001.5 hPa | - | - | - | - |
| 1777286362 | 27.78° C | 83% | 1001.5 hPa | - | - | - | - |
| 1777285462 | 27.22° C | 85% | 1001.6 hPa | - | - | - | - |
| 1777284562 | 26.67° C | 88% | 1001.9 hPa | - | - | - | - |
| 1777283599 | 26.67° C | 94% | 1000.7 hPa | - | - | - | - |
| 1777282762 | 26.67° C | 94% | 1000.7 hPa | - | - | - | - |
| 1777281862 | 26.11° C | 97% | 1000.8 hPa | - | - | - | - |
| 1777280962 | 27.22° C | 81% | 999.9 hPa | - | - | - | - |
| 1777280062 | 29.44° C | 75% | 998.2 hPa | - | - | - | - |
| 1777279161 | 33.89° C | 61% | 999.8 hPa | - | - | - | - |
| 1777278261 | 35° C | 56% | 1000.3 hPa | - | - | - | - |
| 1777277361 | 34.44° C | 60% | 1000.4 hPa | - | - | - | - |
| 1777276461 | 33.89° C | 60% | 999.8 hPa | - | - | - | - |
| 1777275561 | 33.89° C | 59% | 999.9 hPa | - | - | - | - |
| 1777274663 | 37.22° C | 44% | 999.6 hPa | - | - | - | - |
* Rain since midnight (hover to see other rain measurements)
** Current wind speed in m/s (hover to see current wind gust speed)